createdAt,value
2018-11-02T00:00:22.549Z,8.20
2018-11-02T00:02:50.836Z,8.87
2018-11-02T00:05:19.296Z,8.67
2018-11-02T00:07:47.669Z,11.10
2018-11-02T00:10:16.313Z,7.20
2018-11-02T00:12:44.827Z,8.67
2018-11-02T00:15:13.441Z,8.37
2018-11-02T00:17:41.787Z,10.77
2018-11-02T00:20:10.162Z,8.17
2018-11-02T00:22:38.504Z,9.70
2018-11-02T00:25:06.920Z,11.63
2018-11-02T00:27:36.155Z,7.00
2018-11-02T00:30:04.705Z,8.87
2018-11-02T00:32:33.225Z,7.17
2018-11-02T00:35:01.671Z,7.20
2018-11-02T00:37:30.043Z,8.63
2018-11-02T00:39:58.470Z,9.80
2018-11-02T00:42:26.873Z,8.20
2018-11-02T00:44:55.227Z,10.77
2018-11-02T00:47:23.598Z,7.13
2018-11-02T00:49:52.243Z,9.17
2018-11-02T00:52:20.751Z,10.57
2018-11-02T00:54:49.514Z,8.23
2018-11-02T00:57:17.893Z,8.33
2018-11-02T00:59:46.566Z,9.47
2018-11-02T01:02:14.959Z,7.50
2018-11-02T01:04:43.358Z,6.60
2018-11-02T01:07:11.968Z,12.70
2018-11-02T01:09:40.334Z,11.00
2018-11-02T01:12:08.981Z,10.73
2018-11-02T01:14:37.469Z,8.27
2018-11-02T01:17:06.360Z,10.90
2018-11-02T01:19:35.251Z,7.50
2018-11-02T01:22:05.036Z,7.40
2018-11-02T01:24:33.645Z,7.27
2018-11-02T01:27:02.061Z,8.67
2018-11-02T01:29:31.054Z,8.23
2018-11-02T01:31:59.477Z,7.00
2018-11-02T01:34:27.890Z,7.10
2018-11-02T01:36:57.622Z,8.83
2018-11-02T01:39:26.019Z,9.50
2018-11-02T01:41:54.430Z,9.30
2018-11-02T01:44:23.604Z,8.73
2018-11-02T01:46:52.841Z,8.60
2018-11-02T01:49:21.573Z,7.03
2018-11-02T01:51:49.973Z,10.20
2018-11-02T01:54:18.382Z,8.47
2018-11-02T01:56:47.537Z,9.47
2018-11-02T01:59:17.420Z,10.70
2018-11-02T02:01:46.110Z,7.00
2018-11-02T02:04:14.485Z,10.00
2018-11-02T02:06:42.969Z,9.23
2018-11-02T02:09:12.378Z,7.90
2018-11-02T02:11:40.999Z,8.47
2018-11-02T02:14:09.579Z,9.53
2018-11-02T02:16:38.319Z,8.33
2018-11-02T02:19:07.804Z,12.17
2018-11-02T02:21:37.309Z,8.70
2018-11-02T02:24:05.858Z,6.77
2018-11-02T02:26:34.235Z,7.63
2018-11-02T02:29:02.790Z,8.60
2018-11-02T02:31:31.343Z,9.03
2018-11-02T02:33:59.753Z,7.43
2018-11-02T02:36:28.991Z,7.70
2018-11-02T02:38:58.259Z,11.33
2018-11-02T02:41:27.194Z,6.93
2018-11-02T02:43:55.591Z,7.33
2018-11-02T02:46:24.104Z,7.93
2018-11-02T02:48:52.767Z,9.93
2018-11-02T02:51:21.149Z,7.10
2018-11-02T02:53:49.519Z,8.70
2018-11-02T02:56:18.761Z,6.43
2018-11-02T02:58:47.177Z,8.20
2018-11-02T03:01:15.553Z,7.10
2018-11-02T03:03:43.919Z,7.60
2018-11-02T03:06:13.872Z,6.83
2018-11-02T03:08:42.279Z,7.40
2018-11-02T03:11:11.172Z,10.17
2018-11-02T03:13:39.320Z,6.13
2018-11-02T03:16:07.994Z,8.93
2018-11-02T03:18:36.449Z,8.13
2018-11-02T03:21:05.140Z,6.50
2018-11-02T03:23:34.239Z,6.17
2018-11-02T03:26:02.882Z,7.70
2018-11-02T03:28:31.350Z,7.73
2018-11-02T03:30:59.813Z,7.97
2018-11-02T03:33:28.190Z,5.97
2018-11-02T03:35:56.606Z,6.40
2018-11-02T03:38:25.023Z,6.17
2018-11-02T03:40:53.705Z,6.10
2018-11-02T03:43:22.115Z,6.13
2018-11-02T03:45:50.483Z,5.57
2018-11-02T03:48:18.869Z,8.63
2018-11-02T03:50:47.438Z,5.67
2018-11-02T03:53:16.635Z,6.73
2018-11-02T03:55:45.078Z,6.37
2018-11-02T03:58:13.514Z,6.00
2018-11-02T04:00:41.856Z,5.40
2018-11-02T04:03:10.257Z,5.57
2018-11-02T04:05:38.666Z,6.43
2018-11-02T04:08:07.766Z,6.63
2018-11-02T04:10:36.185Z,7.13
2018-11-02T04:13:04.838Z,5.70
2018-11-02T04:15:33.671Z,5.60
2018-11-02T04:18:02.076Z,4.80
2018-11-02T04:20:31.133Z,4.47
2018-11-02T04:22:59.624Z,4.47
2018-11-02T04:25:28.456Z,4.90
2018-11-02T04:27:56.969Z,5.17
2018-11-02T04:30:25.750Z,7.70
2018-11-02T04:32:54.505Z,5.03
2018-11-02T04:35:23.304Z,4.40
2018-11-02T04:37:51.734Z,6.37
2018-11-02T04:40:20.169Z,6.40
2018-11-02T04:42:48.550Z,5.40
2018-11-02T04:45:21.106Z,4.67
2018-11-02T04:47:49.567Z,4.33
2018-11-02T04:50:18.002Z,5.53
2018-11-02T04:52:46.381Z,4.13
2018-11-02T04:55:14.928Z,5.27
2018-11-02T04:57:43.304Z,6.23
2018-11-02T05:00:11.771Z,3.80
2018-11-02T05:02:40.563Z,4.40
2018-11-02T05:05:09.232Z,3.93
2018-11-02T05:07:37.721Z,4.00
2018-11-02T05:10:08.559Z,4.93
2018-11-02T05:12:37.102Z,3.83
2018-11-02T05:15:06.104Z,4.83
2018-11-02T05:17:34.617Z,4.23
2018-11-02T05:20:03.849Z,4.77
2018-11-02T05:22:32.333Z,5.17
2018-11-02T05:25:01.468Z,5.03
2018-11-02T05:27:29.968Z,5.00
2018-11-02T05:29:58.403Z,6.90
2018-11-02T05:32:26.831Z,6.07
2018-11-02T05:34:55.231Z,5.57
2018-11-02T05:37:23.726Z,6.03
2018-11-02T05:39:52.337Z,6.70
2018-11-02T05:42:20.806Z,5.83
2018-11-02T05:44:49.601Z,5.13
2018-11-02T05:47:18.097Z,4.30
2018-11-02T05:49:47.098Z,6.90
2018-11-02T05:52:15.553Z,5.90
2018-11-02T05:54:44.231Z,8.40
2018-11-02T05:57:12.864Z,7.40
2018-11-02T05:59:41.523Z,6.00
2018-11-02T06:02:10.253Z,8.53
2018-11-02T06:04:38.609Z,5.70
2018-11-02T06:07:07.220Z,5.37
2018-11-02T06:09:35.772Z,7.37
2018-11-02T06:12:04.313Z,8.67
2018-11-02T06:14:33.360Z,6.20
2018-11-02T06:17:02.023Z,5.67
2018-11-02T06:19:30.393Z,8.00
2018-11-02T06:21:58.756Z,6.47
2018-11-02T06:24:27.319Z,7.03
2018-11-02T06:26:55.844Z,7.10
2018-11-02T06:29:24.292Z,5.90
2018-11-02T06:31:52.651Z,10.13
2018-11-02T06:34:21.157Z,6.40
2018-11-02T06:36:49.579Z,8.57
2018-11-02T06:39:18.051Z,5.77
2018-11-02T06:41:46.564Z,7.50
2018-11-02T06:44:15.020Z,7.33
2018-11-02T06:46:43.505Z,6.03
2018-11-02T06:49:12.090Z,6.87
2018-11-02T06:51:40.481Z,7.27
2018-11-02T06:54:08.912Z,6.47
2018-11-02T06:56:37.344Z,8.13
2018-11-02T06:59:05.977Z,5.20
2018-11-02T07:01:34.554Z,5.90
2018-11-02T07:04:03.075Z,9.90
2018-11-02T07:06:31.555Z,7.53
2018-11-02T07:08:59.953Z,9.43
2018-11-02T07:11:28.718Z,6.10
2018-11-02T07:13:57.222Z,11.13
2018-11-02T07:16:25.591Z,7.57
2018-11-02T07:18:54.070Z,11.03
2018-11-02T07:21:22.524Z,8.37
2018-11-02T07:23:50.955Z,11.97
2018-11-02T07:26:19.303Z,8.60
2018-11-02T07:28:47.715Z,7.07
2018-11-02T07:31:16.192Z,7.03
2018-11-02T07:33:44.676Z,8.07
2018-11-02T07:36:13.119Z,8.50
2018-11-02T07:38:41.605Z,6.00
2018-11-02T07:41:10.118Z,7.03
2018-11-02T07:43:38.645Z,5.90
2018-11-02T07:46:07.130Z,6.80
2018-11-02T07:48:35.544Z,6.00
2018-11-02T07:51:04.018Z,9.67
2018-11-02T07:53:32.449Z,7.57
2018-11-02T07:56:00.887Z,7.70
2018-11-02T07:58:29.356Z,5.20
2018-11-02T08:00:57.869Z,7.60
2018-11-02T08:03:26.389Z,6.43
2018-11-02T08:05:54.922Z,8.60
2018-11-02T08:08:23.368Z,7.13
2018-11-02T08:10:51.897Z,7.13
2018-11-02T08:13:20.388Z,7.17
2018-11-02T08:15:48.824Z,6.03
2018-11-02T08:18:17.670Z,6.10
2018-11-02T08:20:46.090Z,5.57
2018-11-02T08:23:14.529Z,6.53
2018-11-02T08:25:42.959Z,5.57
2018-11-02T08:28:11.447Z,5.30
2018-11-02T08:30:39.879Z,4.07
2018-11-02T08:33:08.327Z,6.50
2018-11-02T08:35:36.694Z,3.30
2018-11-02T08:38:05.101Z,4.83
2018-11-02T08:40:33.525Z,3.70
2018-11-02T08:43:02.305Z,5.60
2018-11-02T08:45:30.753Z,4.07
2018-11-02T08:47:59.270Z,5.43
2018-11-02T08:50:27.845Z,3.80
2018-11-02T08:52:56.455Z,4.80
2018-11-02T08:55:24.880Z,6.00
2018-11-02T08:57:53.856Z,4.40
2018-11-02T09:00:22.355Z,3.80
2018-11-02T09:02:50.909Z,4.00
2018-11-02T09:05:19.314Z,4.37
2018-11-02T09:07:47.785Z,3.73
2018-11-02T09:10:16.478Z,5.80
2018-11-02T09:12:44.903Z,3.97
2018-11-02T09:15:13.326Z,5.30
2018-11-02T09:17:41.841Z,4.87
2018-11-02T09:20:10.672Z,6.57
2018-11-02T09:22:39.559Z,3.97
2018-11-02T09:25:08.896Z,8.20
2018-11-02T09:27:37.433Z,4.77
2018-11-02T09:30:10.722Z,6.20
2018-11-02T09:32:39.148Z,3.50
2018-11-02T09:35:07.577Z,5.57
2018-11-02T09:37:36.322Z,3.87
2018-11-02T09:40:06.808Z,5.97
2018-11-02T09:42:35.712Z,3.83
2018-11-02T09:45:04.959Z,5.17
2018-11-02T09:47:33.337Z,7.57
2018-11-02T09:50:02.081Z,4.87
2018-11-02T09:52:30.490Z,6.90
2018-11-02T09:54:58.869Z,4.57
2018-11-02T09:57:27.367Z,6.40
2018-11-02T09:59:55.793Z,8.90
2018-11-02T10:02:24.289Z,4.10
2018-11-02T10:04:52.788Z,8.77
2018-11-02T10:07:21.243Z,7.03
2018-11-02T10:09:49.890Z,8.03
2018-11-02T10:12:18.306Z,4.97
2018-11-02T10:14:46.686Z,5.43
2018-11-02T10:17:15.344Z,5.27
2018-11-02T10:19:43.806Z,4.40
2018-11-02T10:22:12.296Z,6.13
2018-11-02T10:24:40.802Z,7.60
2018-11-02T10:27:09.753Z,4.20
2018-11-02T10:29:38.235Z,9.77
2018-11-02T10:32:06.683Z,4.40
2018-11-02T10:34:35.100Z,4.17
2018-11-02T10:37:03.892Z,3.53
2018-11-02T10:39:33.434Z,3.27
2018-11-02T10:42:03.372Z,6.60
2018-11-02T10:44:33.817Z,4.17
2018-11-02T10:47:02.648Z,3.53
2018-11-02T10:49:31.219Z,4.67
2018-11-02T10:51:59.558Z,3.33
2018-11-02T10:54:28.134Z,3.23
2018-11-02T10:56:56.561Z,3.60
2018-11-02T10:59:24.993Z,3.17
2018-11-02T11:01:59.174Z,4.07
2018-11-02T11:04:27.641Z,3.07
2018-11-02T11:06:56.125Z,2.70
2018-11-02T11:09:24.606Z,2.47
2018-11-02T11:11:53.048Z,3.27
2018-11-02T11:14:21.481Z,2.60
2018-11-02T11:16:49.947Z,3.30
2018-11-02T11:19:18.358Z,4.97
2018-11-02T11:21:46.822Z,4.27
2018-11-02T11:24:15.282Z,3.53
2018-11-02T11:26:43.867Z,4.57
2018-11-02T11:29:12.269Z,2.90
2018-11-02T11:31:41.643Z,6.80
2018-11-02T11:34:10.771Z,3.47
2018-11-02T11:36:39.487Z,4.00
2018-11-02T11:39:11.190Z,3.47
2018-11-02T11:41:39.721Z,3.10
2018-11-02T11:44:08.261Z,3.40
2018-11-02T11:46:37.577Z,3.10
2018-11-02T11:49:07.443Z,3.90
2018-11-02T11:51:35.859Z,2.57
2018-11-02T11:54:04.432Z,3.30
2018-11-02T11:56:33.053Z,6.47
2018-11-02T11:59:01.791Z,3.20
2018-11-02T12:01:30.310Z,4.00
2018-11-02T12:03:58.763Z,3.20
2018-11-02T12:06:27.167Z,4.77
2018-11-02T12:08:55.908Z,6.80
2018-11-02T12:11:24.347Z,3.33
2018-11-02T12:13:53.281Z,3.37
2018-11-02T12:16:21.725Z,3.27
2018-11-02T12:18:50.137Z,3.37
2018-11-02T12:21:18.544Z,5.13
2018-11-02T12:23:47.051Z,3.57
2018-11-02T12:26:15.647Z,5.60
2018-11-02T12:28:44.160Z,3.30
2018-11-02T12:31:12.481Z,4.50
2018-11-02T12:33:41.259Z,3.83
2018-11-02T12:36:09.683Z,3.30
2018-11-02T12:38:38.057Z,3.60
2018-11-02T12:41:06.456Z,3.20
2018-11-02T12:43:34.904Z,2.93
2018-11-02T12:46:04.447Z,4.67
2018-11-02T12:48:34.425Z,4.80
2018-11-02T12:51:09.945Z,4.67
2018-11-02T12:53:38.693Z,3.73
2018-11-02T12:56:07.197Z,4.33
2018-11-02T12:58:35.581Z,4.47
2018-11-02T13:01:04.365Z,6.40
2018-11-02T13:03:32.761Z,7.60
2018-11-02T13:06:01.282Z,3.60
2018-11-02T13:08:29.761Z,5.13
2018-11-02T13:10:58.403Z,4.70
2018-11-02T13:13:26.723Z,4.10
2018-11-02T13:15:55.149Z,4.23
2018-11-02T13:18:25.401Z,3.97
2018-11-02T13:20:53.901Z,4.33
2018-11-02T13:23:22.368Z,3.80
2018-11-02T13:25:50.921Z,4.23
2018-11-02T13:28:19.357Z,6.07
2018-11-02T13:30:48.266Z,4.43
2018-11-02T13:33:21.224Z,5.77
2018-11-02T13:35:54.246Z,6.73
2018-11-02T13:38:23.254Z,4.70
2018-11-02T13:40:52.381Z,4.93
2018-11-02T13:43:21.270Z,4.47
2018-11-02T13:45:50.599Z,6.10
2018-11-02T13:48:19.363Z,6.00
2018-11-02T13:50:52.818Z,6.00
2018-11-02T13:53:21.286Z,7.03
2018-11-02T13:55:51.264Z,4.37
2018-11-02T13:58:24.118Z,6.70
2018-11-02T14:00:55.014Z,7.30
2018-11-02T14:03:25.000Z,4.63
2018-11-02T14:05:57.705Z,5.67
2018-11-02T14:08:26.763Z,5.80
2018-11-02T14:10:55.602Z,6.83
2018-11-02T14:13:23.983Z,5.37
2018-11-02T14:15:52.373Z,6.73
2018-11-02T14:18:21.637Z,6.33
2018-11-02T14:20:50.107Z,6.90
2018-11-02T14:23:18.586Z,4.33
2018-11-02T14:25:46.935Z,4.83
2018-11-02T14:28:15.476Z,5.07
2018-11-02T14:30:43.965Z,5.53
2018-11-02T14:33:12.362Z,5.33
2018-11-02T14:35:40.695Z,6.50
2018-11-02T14:38:09.109Z,5.70
2018-11-02T14:40:37.882Z,6.97
2018-11-02T14:43:06.278Z,7.10
2018-11-02T14:45:34.819Z,5.47
2018-11-02T14:48:03.262Z,6.40
2018-11-02T14:50:32.416Z,6.63
2018-11-02T14:53:00.779Z,10.37
2018-11-02T14:55:29.203Z,6.33
2018-11-02T14:57:58.234Z,4.53
2018-11-02T15:00:26.629Z,6.00
2018-11-02T15:02:55.068Z,7.77
2018-11-02T15:05:23.841Z,7.33
2018-11-02T15:07:54.002Z,4.93
2018-11-02T15:10:22.454Z,8.93
2018-11-02T15:12:51.142Z,8.43
2018-11-02T15:15:19.793Z,11.37
2018-11-02T15:17:48.247Z,6.13
2018-11-02T15:20:16.729Z,5.40
2018-11-02T15:22:45.164Z,9.93
2018-11-02T15:25:13.883Z,8.17
2018-11-02T15:27:42.889Z,8.57
2018-11-02T15:30:13.111Z,10.17
2018-11-02T15:32:42.143Z,9.77
2018-11-02T15:35:11.391Z,6.93
2018-11-02T15:37:39.937Z,7.17
2018-11-02T15:40:09.613Z,6.60
2018-11-02T15:42:37.998Z,5.90
2018-11-02T15:45:08.285Z,5.83
2018-11-02T15:47:36.829Z,8.73
2018-11-02T15:50:06.003Z,11.37
2018-11-02T15:52:35.581Z,8.33
2018-11-02T15:55:03.951Z,6.47
2018-11-02T15:57:33.530Z,11.10
2018-11-02T16:00:01.937Z,11.10
2018-11-02T16:02:30.890Z,8.37
2018-11-02T16:04:59.320Z,8.70
2018-11-02T16:07:27.759Z,7.13
2018-11-02T16:09:56.171Z,12.57
2018-11-02T16:12:24.555Z,7.13
2018-11-02T16:14:53.947Z,8.17
2018-11-02T16:17:23.500Z,11.33
2018-11-02T16:19:52.002Z,8.93
2018-11-02T16:22:20.426Z,10.57
2018-11-02T16:24:48.827Z,7.60
2018-11-02T16:27:17.469Z,8.80
2018-11-02T16:29:45.954Z,8.90
2018-11-02T16:32:14.406Z,8.97
2018-11-02T16:34:43.201Z,9.60
2018-11-02T16:37:12.183Z,8.43
2018-11-02T16:39:40.594Z,11.10
2018-11-02T16:42:09.249Z,9.70
2018-11-02T16:44:38.105Z,12.67
2018-11-02T16:47:06.515Z,11.70
2018-11-02T16:49:35.081Z,10.70
2018-11-02T16:52:04.222Z,11.23
2018-11-02T16:54:32.966Z,10.80
2018-11-02T16:57:01.508Z,10.47
2018-11-02T16:59:29.992Z,11.03
2018-11-02T17:01:58.460Z,10.37
2018-11-02T17:04:26.842Z,15.03
2018-11-02T17:06:55.366Z,16.53
2018-11-02T17:09:23.910Z,13.80
2018-11-02T17:11:52.277Z,13.97
2018-11-02T17:14:20.634Z,13.23
2018-11-02T17:16:49.081Z,13.07
2018-11-02T17:19:17.429Z,12.80
2018-11-02T17:21:45.891Z,12.70
2018-11-02T17:24:15.066Z,12.67
2018-11-02T17:26:44.024Z,14.77
2018-11-02T17:29:12.399Z,14.80
2018-11-02T17:31:40.836Z,14.93
2018-11-02T17:34:09.238Z,17.13
2018-11-02T17:36:37.711Z,15.90
2018-11-02T17:39:08.578Z,14.30
2018-11-02T17:41:37.321Z,13.50
2018-11-02T17:44:06.783Z,14.70
2018-11-02T17:46:35.190Z,17.20
2018-11-02T17:49:03.603Z,16.07
2018-11-02T17:51:32.821Z,17.03
2018-11-02T17:54:01.271Z,14.93
2018-11-02T17:56:29.701Z,15.87
2018-11-02T17:58:58.087Z,13.00
2018-11-02T18:01:26.508Z,16.87
2018-11-02T18:03:54.897Z,17.43
2018-11-02T18:06:23.320Z,15.43
2018-11-02T18:08:52.676Z,14.20
2018-11-02T18:11:21.002Z,17.40
2018-11-02T18:13:49.378Z,15.47
2018-11-02T18:16:17.790Z,18.43
2018-11-02T18:18:46.192Z,19.57
2018-11-02T18:21:15.249Z,16.80
2018-11-02T18:23:43.698Z,18.30
2018-11-02T18:26:12.089Z,17.33
2018-11-02T18:28:40.526Z,18.70
2018-11-02T18:31:08.893Z,24.27
2018-11-02T18:33:37.267Z,26.40
2018-11-02T18:36:05.823Z,22.00
2018-11-02T18:38:34.601Z,21.07
2018-11-02T18:41:02.984Z,15.67
2018-11-02T18:43:31.455Z,16.70
2018-11-02T18:46:00.007Z,15.03
2018-11-02T18:48:28.812Z,15.93
2018-11-02T18:50:57.117Z,17.40
2018-11-02T18:53:25.497Z,16.03
2018-11-02T18:55:53.934Z,18.00
2018-11-02T18:58:22.881Z,24.07
2018-11-02T19:00:51.327Z,16.20
2018-11-02T19:03:19.747Z,16.23
2018-11-02T19:05:48.258Z,17.30
2018-11-02T19:08:16.617Z,18.73
2018-11-02T19:10:45.132Z,16.87
2018-11-02T19:13:13.627Z,20.53
2018-11-02T19:15:42.152Z,20.57
2018-11-02T19:18:10.643Z,21.57
2018-11-02T19:20:39.105Z,18.37
2018-11-02T19:23:07.540Z,17.73
2018-11-02T19:25:35.938Z,19.33
2018-11-02T19:28:04.388Z,19.43
2018-11-02T19:30:32.787Z,18.90
2018-11-02T19:33:01.290Z,22.87
2018-11-02T19:35:29.667Z,16.83
2018-11-02T19:37:58.108Z,20.67
2018-11-02T19:40:26.363Z,17.97
2018-11-02T19:42:54.764Z,18.77
2018-11-02T19:45:23.204Z,21.63
2018-11-02T19:47:54.792Z,21.17
2018-11-02T19:50:23.286Z,18.90
2018-11-02T19:52:51.706Z,22.00
2018-11-02T19:55:21.037Z,20.73
2018-11-02T19:57:49.383Z,24.20
2018-11-02T20:00:18.104Z,20.63
2018-11-02T20:02:46.604Z,17.50
2018-11-02T20:05:16.773Z,20.37
2018-11-02T20:07:46.607Z,24.83
2018-11-02T20:10:15.950Z,22.73
2018-11-02T20:12:44.893Z,20.23
2018-11-02T20:15:14.778Z,23.57
2018-11-02T20:17:43.240Z,25.80
2018-11-02T20:20:13.454Z,30.83
2018-11-02T20:22:41.895Z,23.53
2018-11-02T20:25:12.564Z,21.33
2018-11-02T20:27:40.977Z,22.40
2018-11-02T20:30:11.946Z,29.70
2018-11-02T20:32:40.499Z,23.80
2018-11-02T20:35:09.213Z,25.70
2018-11-02T20:37:38.328Z,25.23
2018-11-02T20:40:08.961Z,21.23
2018-11-02T20:42:37.415Z,25.77
2018-11-02T20:45:06.430Z,29.03
2018-11-02T20:47:39.949Z,25.57
2018-11-02T20:50:10.001Z,25.10
2018-11-02T20:52:38.395Z,27.43
2018-11-02T20:55:08.209Z,22.90
2018-11-02T20:57:37.318Z,22.83
2018-11-02T21:00:08.121Z,25.30
2018-11-02T21:02:36.686Z,22.33
2018-11-02T21:05:06.304Z,21.93
2018-11-02T21:07:34.830Z,21.60
2018-11-02T21:10:05.393Z,23.27
2018-11-02T21:12:33.863Z,23.47
2018-11-02T21:15:02.449Z,23.80
2018-11-02T21:17:30.954Z,29.73
2018-11-02T21:19:59.481Z,22.57
2018-11-02T21:22:28.755Z,25.30
2018-11-02T21:24:57.198Z,21.60
2018-11-02T21:27:26.189Z,22.27
2018-11-02T21:29:55.758Z,24.47
2018-11-02T21:32:25.067Z,19.37
2018-11-02T21:34:53.899Z,21.83
2018-11-02T21:37:22.468Z,24.07
2018-11-02T21:39:50.992Z,22.50
2018-11-02T21:42:19.972Z,20.63
2018-11-02T21:44:48.487Z,22.87
2018-11-02T21:47:17.579Z,21.00
2018-11-02T21:49:46.815Z,22.40
2018-11-02T21:52:16.570Z,22.10
2018-11-02T21:54:45.074Z,18.17
2018-11-02T21:57:13.896Z,18.70
2018-11-02T21:59:43.233Z,25.77
2018-11-02T22:02:12.223Z,23.50
2018-11-02T22:04:40.691Z,24.03
2018-11-02T22:07:09.102Z,18.80
2018-11-02T22:09:37.618Z,19.93
2018-11-02T22:12:06.249Z,24.77
2018-11-02T22:14:36.568Z,20.17
2018-11-02T22:17:06.194Z,20.43
2018-11-02T22:19:34.657Z,21.23
2018-11-02T22:22:06.689Z,20.23
2018-11-02T22:24:35.239Z,19.53
2018-11-02T22:27:03.845Z,21.73
2018-11-02T22:29:32.436Z,19.80
2018-11-02T22:32:01.352Z,22.20
2018-11-02T22:34:30.055Z,19.87
2018-11-02T22:36:58.877Z,23.57
2018-11-02T22:39:27.270Z,24.53
2018-11-02T22:41:59.944Z,22.00
2018-11-02T22:44:28.307Z,23.10
2018-11-02T22:46:56.863Z,21.13
2018-11-02T22:49:26.271Z,19.37
2018-11-02T22:51:58.894Z,21.57
2018-11-02T22:54:27.596Z,22.37
2018-11-02T22:56:57.670Z,22.67
2018-11-02T22:59:27.128Z,22.73
2018-11-02T23:01:55.715Z,22.63
2018-11-02T23:04:24.140Z,21.43
2018-11-02T23:06:52.601Z,20.20
2018-11-02T23:09:24.030Z,20.60
2018-11-02T23:11:52.830Z,22.50
2018-11-02T23:14:21.412Z,18.23
2018-11-02T23:16:49.899Z,20.50
2018-11-02T23:19:18.311Z,17.40
2018-11-02T23:21:47.808Z,22.57
2018-11-02T23:24:16.309Z,18.00
2018-11-02T23:26:44.809Z,19.37
2018-11-02T23:29:13.203Z,22.37
2018-11-02T23:31:41.604Z,17.50
2018-11-02T23:34:10.109Z,17.57
2018-11-02T23:36:38.508Z,18.87
2018-11-02T23:39:07.519Z,18.87
2018-11-02T23:41:35.903Z,23.47
2018-11-02T23:44:05.021Z,19.13
2018-11-02T23:46:33.509Z,20.47
2018-11-02T23:49:02.095Z,19.27
2018-11-02T23:51:30.564Z,19.47
2018-11-02T23:53:59.116Z,16.57
2018-11-02T23:56:27.847Z,16.33
2018-11-02T23:58:57.558Z,19.10
